Time;durP1;ratioP1;P1;durP2;ratioP2;P2;SDS_P1;SDS_P2;PMS_P1;PMS_P2;Temp;Humidity;BMP_temperature;BMP_pressure;BME280_temperature;BME280_humidity;BME280_pressure;Samples;Min_cycle;Max_cycle;Signal;HPM_P1;HPM_P2
2022/07/30 00:02:22;;;;;;;5.03;2.10;;;18.10;99.90;;;;;;5102953;28;20199;-46
2022/07/30 00:04:50;;;;;;;2.73;2.20;;;18.10;99.90;;;;;;5103253;27;20198;-45
2022/07/30 00:07:17;;;;;;;4.53;2.27;;;18.10;99.90;;;;;;5103108;28;20224;-48
2022/07/30 00:09:43;;;;;;;2.83;2.57;;;18.10;99.90;;;;;;5092978;27;20198;-47
2022/07/30 00:12:13;;;;;;;4.67;2.07;;;18.10;99.90;;;;;;5110475;27;20208;-50
2022/07/30 00:14:40;;;;;;;4.77;2.20;;;18.10;99.90;;;;;;5104758;27;20194;-46
2022/07/30 00:17:07;;;;;;;6.90;2.20;;;18.10;99.90;;;;;;5104879;28;20217;-46
2022/07/30 00:19:34;;;;;;;5.60;2.33;;;18.10;99.90;;;;;;5100404;28;20544;-45
2022/07/30 00:22:02;;;;;;;3.13;2.13;;;18.10;99.90;;;;;;5104384;28;20197;-45
2022/07/30 00:24:29;;;;;;;4.73;2.53;;;18.10;99.90;;;;;;5087369;27;20209;-47
2022/07/30 00:26:55;;;;;;;3.73;2.50;;;18.10;99.90;;;;;;5116212;27;20220;-44
2022/07/30 00:29:22;;;;;;;5.13;2.03;;;18.00;99.90;;;;;;5107291;27;20205;-45
2022/07/30 00:31:50;;;;;;;2.10;1.87;;;18.10;99.90;;;;;;5103782;27;20239;-46
2022/07/30 00:34:17;;;;;;;8.03;2.67;;;18.10;99.90;;;;;;5101652;28;20208;-45
2022/07/30 00:36:43;;;;;;;4.17;1.93;;;18.10;99.90;;;;;;5102249;27;20205;-45
2022/07/30 00:39:12;;;;;;;7.00;2.60;;;18.00;99.90;;;;;;5114046;27;20196;-46
2022/07/30 00:41:54;;;;;;;3.23;2.20;;;18.00;99.90;;;;;;5096441;27;20189;-45
2022/07/30 00:44:21;;;;;;;5.30;2.70;;;18.00;99.90;;;;;;5115922;27;20193;-48
2022/07/30 00:46:47;;;;;;;6.40;2.50;;;18.10;99.90;;;;;;5122271;27;20211;-44
2022/07/30 00:49:15;;;;;;;4.30;2.10;;;18.10;99.90;;;;;;5123408;27;20231;-48
2022/07/30 00:51:42;;;;;;;7.00;2.30;;;18.10;99.90;;;;;;5121320;27;20196;-45
2022/07/30 00:54:08;;;;;;;6.47;2.37;;;18.10;99.90;;;;;;5112641;27;20196;-45
2022/07/30 00:56:37;;;;;;;6.03;2.23;;;18.10;99.90;;;;;;5091223;27;20990;-45
2022/07/30 00:59:04;;;;;;;8.20;2.47;;;18.00;99.90;;;;;;5109953;27;20200;-46
2022/07/30 01:01:32;;;;;;;5.20;2.30;;;18.00;99.90;;;;;;5098812;28;20864;-47
2022/07/30 01:03:59;;;;;;;6.40;2.70;;;18.10;99.90;;;;;;5104070;28;20581;-47
2022/07/30 01:06:26;;;;;;;2.30;1.90;;;18.10;99.90;;;;;;5099631;28;20197;-46
2022/07/30 01:08:54;;;;;;;3.90;1.97;;;18.10;99.90;;;;;;5103557;28;20221;-47
2022/07/30 01:11:21;;;;;;;3.97;2.07;;;18.10;99.90;;;;;;5105215;28;20253;-50
2022/07/30 01:13:49;;;;;;;4.93;2.07;;;18.00;99.90;;;;;;5113918;28;20185;-47
2022/07/30 01:16:16;;;;;;;3.80;1.70;;;18.00;99.90;;;;;;5114150;28;20193;-46
2022/07/30 01:21:34;;;;;;;3.27;2.80;;;18.00;99.90;;;;;;5098831;28;20653;-49
2022/07/30 01:24:17;;;;;;;4.30;2.27;;;18.00;99.90;;;;;;5103612;28;20193;-46
2022/07/30 01:26:46;;;;;;;2.80;2.00;;;18.00;99.90;;;;;;5095521;28;20213;-45
2022/07/30 01:29:13;;;;;;;3.37;1.80;;;18.00;99.90;;;;;;5107942;27;20208;-46
2022/07/30 01:31:43;;;;;;;4.37;2.10;;;18.00;99.90;;;;;;5100799;28;20871;-46
2022/07/30 01:34:13;;;;;;;2.93;2.13;;;17.90;99.90;;;;;;5102102;28;20292;-45
2022/07/30 01:36:41;;;;;;;5.17;2.47;;;17.80;99.90;;;;;;5100767;28;20192;-45
2022/07/30 01:39:08;;;;;;;3.60;2.10;;;17.80;99.90;;;;;;5103995;28;20197;-47
2022/07/30 01:41:35;;;;;;;10.33;3.37;;;17.80;99.90;;;;;;5089616;28;20189;-46
2022/07/30 01:44:05;;;;;;;4.13;2.10;;;17.80;99.90;;;;;;5112790;28;20189;-46
2022/07/30 01:46:34;;;;;;;2.33;2.03;;;17.80;99.90;;;;;;5101103;28;20254;-47
2022/07/30 01:49:02;;;;;;;4.33;1.70;;;17.80;99.90;;;;;;5102451;28;20339;-48
2022/07/30 01:51:33;;;;;;;3.30;2.10;;;17.90;99.90;;;;;;5098429;28;20213;-44
2022/07/30 01:54:01;;;;;;;3.33;2.20;;;17.90;99.90;;;;;;5123270;28;20672;-45
2022/07/30 01:56:30;;;;;;;4.40;2.10;;;17.90;99.90;;;;;;5107168;28;20247;-44
2022/07/30 01:58:58;;;;;;;4.60;2.10;;;17.80;99.90;;;;;;5102024;28;20205;-47
2022/07/30 02:01:28;;;;;;;3.40;2.20;;;17.80;99.90;;;;;;5114406;28;20283;-47
2022/07/30 02:04:02;;;;;;;4.20;2.80;;;17.80;99.90;;;;;;5105831;27;20755;-45
2022/07/30 02:06:34;;;;;;;2.67;1.67;;;17.80;99.90;;;;;;5104179;27;20212;-46
2022/07/30 02:09:04;;;;;;;4.07;2.10;;;17.80;99.90;;;;;;5102377;28;20221;-45
2022/07/30 02:14:24;;;;;;;3.50;2.13;;;17.80;99.90;;;;;;5108682;27;20181;-44
2022/07/30 02:16:57;;;;;;;4.73;1.93;;;17.70;99.90;;;;;;5110677;27;20218;-48
2022/07/30 02:19:28;;;;;;;2.47;1.90;;;17.70;99.90;;;;;;5106038;27;20685;-46
2022/07/30 02:22:00;;;;;;;3.27;2.10;;;17.60;99.90;;;;;;5101991;27;20197;-45
2022/07/30 02:24:31;;;;;;;3.63;2.20;;;17.60;99.90;;;;;;5118992;27;20208;-48
2022/07/30 02:27:02;;;;;;;4.70;2.17;;;17.50;99.90;;;;;;5107115;27;20306;-48
2022/07/30 02:29:33;;;;;;;3.47;2.03;;;17.50;99.90;;;;;;5118320;27;20262;-44
2022/07/30 02:32:04;;;;;;;4.87;1.90;;;17.50;99.90;;;;;;5110129;27;20201;-45
2022/07/30 02:34:35;;;;;;;3.60;2.27;;;17.50;99.90;;;;;;5105329;27;20257;-45
2022/07/30 02:37:02;;;;;;;4.50;1.90;;;17.50;99.90;;;;;;5101669;27;20237;-45
2022/07/30 02:39:30;;;;;;;3.87;2.47;;;17.50;99.90;;;;;;5105656;27;20205;-45
2022/07/30 02:41:57;;;;;;;3.93;1.80;;;17.50;99.90;;;;;;5101478;27;20212;-46
2022/07/30 02:44:28;;;;;;;5.57;2.10;;;17.50;99.90;;;;;;5100380;27;20208;-45
2022/07/30 02:46:57;;;;;;;3.47;2.20;;;17.60;99.90;;;;;;5105659;27;20221;-44
2022/07/30 02:49:50;;;;;;;3.40;2.00;;;17.60;99.90;;;;;;5104764;27;20229;-48
2022/07/30 02:52:18;;;;;;;5.63;2.00;;;17.60;99.90;;;;;;5104497;27;20244;-48
2022/07/30 02:54:48;;;;;;;2.70;2.20;;;17.60;99.90;;;;;;5104713;27;20198;-46
2022/07/30 02:57:16;;;;;;;4.53;2.77;;;17.60;99.90;;;;;;5103588;27;20225;-45
2022/07/30 02:59:45;;;;;;;2.10;1.90;;;17.50;99.90;;;;;;5100236;27;20228;-47
2022/07/30 03:02:14;;;;;;;5.50;2.20;;;17.50;99.90;;;;;;5114256;27;20192;-48
2022/07/30 03:04:41;;;;;;;1.90;1.80;;;17.50;99.90;;;;;;5110783;27;20224;-52
2022/07/30 03:07:11;;;;;;;3.37;2.00;;;17.50;99.90;;;;;;5102794;27;20209;-46
2022/07/30 03:09:41;;;;;;;2.67;1.97;;;17.50;99.90;;;;;;5113178;27;20262;-45
2022/07/30 03:12:10;;;;;;;3.63;2.17;;;17.50;99.90;;;;;;5101939;27;20193;-51
2022/07/30 03:14:38;;;;;;;3.57;2.03;;;17.50;99.90;;;;;;5094399;27;20201;-47
2022/07/30 03:17:07;;;;;;;3.33;2.10;;;17.60;99.90;;;;;;5113900;27;20976;-45
2022/07/30 03:19:37;;;;;;;2.87;1.80;;;17.60;99.90;;;;;;5105894;28;20679;-45
2022/07/30 03:22:07;;;;;;;2.40;2.20;;;17.50;99.90;;;;;;5102518;27;20288;-47
2022/07/30 03:24:38;;;;;;;5.10;2.00;;;17.50;99.90;;;;;;5105541;28;20646;-45
2022/07/30 03:27:06;;;;;;;3.53;2.10;;;17.50;99.90;;;;;;5100896;28;20274;-47
2022/07/30 03:29:34;;;;;;;5.63;2.60;;;17.50;99.90;;;;;;5105733;28;20734;-45
2022/07/30 03:32:01;;;;;;;4.97;1.73;;;17.50;99.90;;;;;;5098422;27;20200;-46
2022/07/30 03:34:29;;;;;;;3.87;1.73;;;17.40;99.90;;;;;;5110652;27;20227;-47
2022/07/30 03:36:56;;;;;;;2.17;1.93;;;17.40;99.90;;;;;;5101808;27;20300;-47
2022/07/30 03:39:24;;;;;;;5.13;2.33;;;17.30;99.90;;;;;;5115821;27;20184;-45
2022/07/30 03:41:54;;;;;;;2.37;2.10;;;17.30;99.90;;;;;;5104396;27;20694;-47
2022/07/30 03:44:22;;;;;;;3.30;2.17;;;17.30;99.90;;;;;;5103560;27;20280;-45
2022/07/30 03:46:52;;;;;;;3.07;2.30;;;17.30;99.90;;;;;;5096245;27;20233;-46
2022/07/30 03:49:21;;;;;;;4.03;1.90;;;17.30;99.90;;;;;;5116325;27;20212;-46
2022/07/30 03:51:49;;;;;;;2.33;2.00;;;17.40;99.90;;;;;;5103421;27;20250;-47
2022/07/30 03:54:17;;;;;;;2.67;2.30;;;17.40;99.90;;;;;;5103711;27;20939;-46
2022/07/30 03:56:59;;;;;;;2.83;2.30;;;17.30;99.90;;;;;;5100129;28;20217;-46
2022/07/30 03:59:34;;;;;;;2.20;1.90;;;17.30;99.90;;;;;;5103786;27;20768;-46
2022/07/30 04:02:02;;;;;;;2.20;2.00;;;17.40;99.90;;;;;;5087991;27;20692;-46
2022/07/30 04:04:52;;;;;;;3.63;2.40;;;17.40;99.90;;;;;;5108267;27;20205;-46
2022/07/30 04:07:19;;;;;;;3.10;1.83;;;17.40;99.90;;;;;;5107019;27;20229;-47
2022/07/30 04:09:45;;;;;;;2.30;2.00;;;17.40;99.90;;;;;;5104062;27;20205;-45
2022/07/30 04:12:43;;;;;;;4.93;2.27;;;17.30;99.90;;;;;;5091604;27;20936;-46
2022/07/30 04:15:11;;;;;;;2.13;1.97;;;17.30;99.90;;;;;;5104021;27;20296;-46
2022/07/30 04:17:41;;;;;;;4.27;2.13;;;17.30;99.90;;;;;;5092070;27;20216;-45
2022/07/30 04:20:13;;;;;;;2.10;2.00;;;17.30;99.90;;;;;;5111178;27;20195;-46
2022/07/30 04:22:42;;;;;;;3.07;2.00;;;17.30;99.90;;;;;;5102213;27;20378;-48
2022/07/30 04:25:09;;;;;;;3.30;2.13;;;17.30;99.90;;;;;;5103225;27;20205;-46
2022/07/30 04:27:38;;;;;;;3.57;2.30;;;17.30;99.90;;;;;;5119595;27;20220;-47
2022/07/30 04:30:08;;;;;;;2.60;2.00;;;17.40;99.90;;;;;;5104658;28;20218;-47
2022/07/30 04:32:38;;;;;;;2.87;1.93;;;17.40;99.90;;;;;;5088096;27;21294;-45
2022/07/30 04:35:43;;;;;;;3.30;2.03;;;17.40;99.90;;;;;;5095166;27;20250;-47
2022/07/30 04:38:16;;;;;;;2.37;1.77;;;17.40;99.90;;;;;;5101248;27;20213;-47
2022/07/30 04:40:48;;;;;;;4.67;1.87;;;17.40;99.90;;;;;;5107740;27;20238;-47
2022/07/30 04:43:15;;;;;;;2.83;1.70;;;17.50;99.90;;;;;;5101852;28;20209;-47
2022/07/30 04:45:44;;;;;;;2.53;2.10;;;17.40;99.90;;;;;;5106747;27;20198;-47
2022/07/30 04:48:12;;;;;;;2.77;2.40;;;17.50;99.90;;;;;;5099631;27;20252;-46
2022/07/30 04:51:03;;;;;;;3.10;2.20;;;17.50;99.90;;;;;;5110461;27;20565;-45
2022/07/30 04:53:32;;;;;;;2.73;2.10;;;17.50;99.90;;;;;;5097061;27;20202;-47
2022/07/30 04:56:02;;;;;;;2.53;2.00;;;17.50;99.90;;;;;;5106175;27;20197;-46
2022/07/30 04:58:31;;;;;;;3.80;2.30;;;17.50;99.90;;;;;;5108256;27;20304;-45
2022/07/30 05:01:01;;;;;;;3.13;2.03;;;17.50;99.90;;;;;;5104247;28;20197;-48
2022/07/30 05:03:31;;;;;;;2.27;1.90;;;17.50;99.90;;;;;;5089372;27;20224;-46
2022/07/30 05:06:00;;;;;;;3.33;2.00;;;17.50;99.90;;;;;;5113546;27;20198;-45
2022/07/30 05:08:31;;;;;;;1.97;1.63;;;17.50;99.90;;;;;;5094935;28;20274;-45
2022/07/30 05:11:20;;;;;;;2.10;1.90;;;17.50;99.90;;;;;;5102423;28;20574;-46
2022/07/30 05:13:49;;;;;;;4.67;2.60;;;17.50;99.90;;;;;;5101050;28;20341;-45
2022/07/30 05:16:22;;;;;;;4.30;2.27;;;17.50;99.90;;;;;;5100901;28;20201;-47
2022/07/30 05:18:49;;;;;;;3.47;1.93;;;17.50;99.90;;;;;;5093932;28;20519;-46
2022/07/30 05:21:16;;;;;;;2.23;2.07;;;17.50;99.90;;;;;;5112777;27;20677;-47
2022/07/30 05:23:46;;;;;;;2.40;2.07;;;17.40;99.90;;;;;;5096377;28;20797;-46
2022/07/30 05:26:21;;;;;;;3.83;2.27;;;17.40;99.90;;;;;;5105517;28;20654;-45
2022/07/30 05:28:51;;;;;;;4.27;2.27;;;17.40;99.90;;;;;;5109694;28;20213;-46
2022/07/30 05:31:24;;;;;;;2.93;1.70;;;17.50;99.90;;;;;;5106092;28;20223;-47
2022/07/30 05:33:58;;;;;;;1.97;1.80;;;17.50;99.90;;;;;;5102326;28;20216;-48
2022/07/30 05:36:31;;;;;;;5.17;2.00;;;17.50;99.90;;;;;;5103059;28;20204;-46
2022/07/30 05:38:59;;;;;;;3.80;2.00;;;17.40;99.90;;;;;;5111485;28;20193;-49
2022/07/30 05:41:35;;;;;;;3.20;2.07;;;17.50;99.90;;;;;;5102968;27;20213;-48
2022/07/30 05:44:16;;;;;;;5.30;2.33;;;17.50;99.90;;;;;;5122129;27;20200;-45
2022/07/30 05:46:44;;;;;;;4.47;2.50;;;17.50;99.90;;;;;;5100465;27;20229;-47
2022/07/30 05:49:10;;;;;;;3.53;2.03;;;17.50;99.90;;;;;;5125207;27;20235;-45
2022/07/30 05:51:38;;;;;;;2.43;2.20;;;17.50;99.90;;;;;;5102589;27;20201;-45
2022/07/30 05:54:05;;;;;;;4.67;2.00;;;17.50;99.90;;;;;;5110288;27;20209;-45
2022/07/30 05:57:05;;;;;;;5.23;1.90;;;17.50;99.90;;;;;;5072559;28;20592;-45
2022/07/30 05:59:34;;;;;;;2.17;1.97;;;17.50;99.90;;;;;;5106640;27;20246;-47
2022/07/30 06:02:29;;;;;;;2.33;2.00;;;17.50;99.90;;;;;;5084181;27;20209;-45
2022/07/30 06:05:19;;;;;;;3.60;1.90;;;17.50;99.90;;;;;;5090422;27;20209;-50
2022/07/30 06:07:46;;;;;;;5.47;1.87;;;17.50;99.90;;;;;;5116087;27;20300;-46
2022/07/30 06:10:13;;;;;;;4.03;2.33;;;17.50;99.90;;;;;;5120769;27;20269;-45
2022/07/30 06:12:41;;;;;;;2.20;2.00;;;17.60;99.90;;;;;;5114459;27;20250;-46
2022/07/30 06:15:10;;;;;;;5.87;2.43;;;17.60;99.90;;;;;;5110633;27;20292;-45
2022/07/30 06:17:44;;;;;;;3.07;2.03;;;17.60;99.90;;;;;;5097892;27;20239;-45
2022/07/30 06:20:20;;;;;;;3.13;2.07;;;17.60;99.90;;;;;;5098762;27;20199;-47
2022/07/30 06:22:59;;;;;;;2.53;1.93;;;17.60;99.90;;;;;;5114377;27;20295;-48
2022/07/30 06:25:35;;;;;;;2.17;1.97;;;17.60;99.90;;;;;;5109054;27;20212;-45
2022/07/30 06:28:02;;;;;;;3.60;2.13;;;17.60;99.90;;;;;;5114235;27;20269;-46
2022/07/30 06:30:29;;;;;;;2.87;1.90;;;17.70;99.90;;;;;;5103493;27;20217;-47
2022/07/30 06:32:57;;;;;;;3.87;1.70;;;17.70;99.90;;;;;;5103894;27;20239;-45
2022/07/30 06:35:25;;;;;;;3.50;2.13;;;17.70;99.90;;;;;;5100632;27;20205;-47
2022/07/30 06:37:51;;;;;;;4.57;1.90;;;17.80;99.90;;;;;;5110681;27;20216;-51
2022/07/30 06:40:18;;;;;;;2.73;2.10;;;17.80;99.90;;;;;;5107463;27;20197;-47
2022/07/30 06:43:05;;;;;;;3.83;2.50;;;17.80;99.90;;;;;;5117242;27;20260;-45
2022/07/30 06:46:02;;;;;;;4.13;2.20;;;17.80;99.90;;;;;;5098676;27;20200;-48
2022/07/30 06:48:36;;;;;;;2.40;2.20;;;17.90;99.90;;;;;;5100468;27;20945;-50
2022/07/30 06:51:05;;;;;;;4.40;2.00;;;17.90;99.90;;;;;;5108918;27;20216;-46
2022/07/30 06:53:32;;;;;;;2.03;1.93;;;17.90;99.90;;;;;;5096973;27;20917;-49
2022/07/30 06:56:20;;;;;;;1.97;1.80;;;17.90;99.90;;;;;;5111018;27;20185;-49
2022/07/30 06:58:51;;;;;;;2.93;2.17;;;18.00;99.90;;;;;;5121775;27;20288;-48
2022/07/30 07:01:37;;;;;;;5.00;2.20;;;18.00;99.90;;;;;;5106722;27;20920;-46
2022/07/30 07:04:05;;;;;;;3.33;2.10;;;18.00;99.90;;;;;;5104586;27;20201;-46
2022/07/30 07:06:32;;;;;;;2.70;2.40;;;18.00;99.90;;;;;;5091006;27;20288;-48
2022/07/30 07:09:00;;;;;;;4.97;2.40;;;18.00;99.90;;;;;;5109996;27;20201;-47
2022/07/30 07:11:35;;;;;;;2.60;1.93;;;18.00;99.90;;;;;;5104280;27;20270;-51
2022/07/30 07:14:07;;;;;;;3.33;2.13;;;18.00;99.90;;;;;;5109251;27;20195;-46
2022/07/30 07:16:35;;;;;;;2.97;2.10;;;18.10;99.90;;;;;;5098847;27;20589;-47
2022/07/30 07:19:26;;;;;;;2.43;2.20;;;18.10;99.90;;;;;;5109697;27;20280;-48
2022/07/30 07:21:53;;;;;;;3.10;1.73;;;18.10;99.90;;;;;;5117520;27;20346;-46
2022/07/30 07:24:20;;;;;;;2.47;2.27;;;18.20;99.90;;;;;;5102489;27;20236;-46
2022/07/30 07:27:14;;;;;;;3.07;2.50;;;18.20;99.90;;;;;;5102286;28;20229;-46
2022/07/30 07:29:46;;;;;;;3.07;2.20;;;18.20;99.90;;;;;;5104596;27;20231;-47
2022/07/30 07:32:13;;;;;;;3.10;2.13;;;18.20;99.90;;;;;;5108044;27;20204;-46
2022/07/30 07:34:41;;;;;;;5.53;2.20;;;18.20;99.90;;;;;;5112488;27;20228;-49
2022/07/30 07:37:08;;;;;;;3.50;2.10;;;18.20;99.90;;;;;;5096779;27;20265;-48
2022/07/30 07:39:36;;;;;;;3.13;2.23;;;18.30;99.90;;;;;;5099176;27;20254;-46
2022/07/30 07:42:04;;;;;;;2.23;2.03;;;18.30;99.90;;;;;;5100263;27;20220;-46
2022/07/30 07:44:31;;;;;;;3.67;2.53;;;18.40;99.90;;;;;;5109374;27;20237;-47
2022/07/30 07:46:58;;;;;;;5.20;2.23;;;18.40;99.90;;;;;;5109649;27;20217;-45
2022/07/30 07:49:29;;;;;;;3.80;2.00;;;18.40;99.90;;;;;;5109545;27;20296;-46
2022/07/30 07:51:57;;;;;;;3.40;2.17;;;18.50;99.90;;;;;;5098018;27;20219;-45
2022/07/30 07:54:25;;;;;;;3.57;2.60;;;18.60;99.90;;;;;;5093870;27;20615;-48
2022/07/30 07:56:55;;;;;;;3.27;2.40;;;18.60;99.90;;;;;;5104026;27;20225;-49
2022/07/30 07:59:27;;;;;;;3.67;2.30;;;18.70;99.90;;;;;;5107145;27;20288;-45
2022/07/30 08:01:54;;;;;;;5.27;2.77;;;18.70;99.90;;;;;;5109301;27;20204;-50
2022/07/30 08:04:44;;;;;;;2.80;2.50;;;18.70;99.90;;;;;;5115764;27;20200;-45
2022/07/30 08:07:12;;;;;;;4.93;2.37;;;18.80;99.90;;;;;;5102077;27;20534;-45
2022/07/30 08:10:17;;;;;;;2.53;2.33;;;18.90;99.90;;;;;;5092319;27;20854;-45
2022/07/30 08:13:04;;;;;;;3.93;2.37;;;18.90;99.90;;;;;;5100725;27;20741;-48
2022/07/30 08:16:09;;;;;;;3.17;2.17;;;18.90;99.90;;;;;;5101421;27;20903;-45
2022/07/30 08:18:55;;;;;;;2.70;2.20;;;19.00;99.90;;;;;;5106008;27;20214;-50
2022/07/30 08:21:31;;;;;;;2.47;2.27;;;19.10;99.90;;;;;;5114894;27;20234;-47
2022/07/30 08:23:59;;;;;;;5.53;2.30;;;19.20;99.90;;;;;;5098760;27;20750;-48
2022/07/30 08:26:26;;;;;;;3.17;2.70;;;19.20;99.90;;;;;;5094857;27;20229;-46
2022/07/30 08:28:52;;;;;;;3.43;2.77;;;19.30;99.90;;;;;;5109345;27;20201;-48
2022/07/30 08:31:20;;;;;;;3.10;2.73;;;19.40;99.90;;;;;;5106932;27;20430;-47
2022/07/30 08:33:46;;;;;;;3.63;2.50;;;19.40;99.90;;;;;;5109099;27;20200;-46
2022/07/30 08:36:14;;;;;;;2.63;2.30;;;19.50;99.90;;;;;;5101706;27;20224;-48
2022/07/30 08:38:40;;;;;;;3.73;2.83;;;19.50;99.90;;;;;;5106020;27;20639;-47
2022/07/30 08:41:09;;;;;;;3.63;3.07;;;19.60;99.90;;;;;;5095825;27;20201;-46
2022/07/30 08:43:37;;;;;;;5.20;3.00;;;19.60;99.90;;;;;;5108811;27;20546;-48
2022/07/30 08:46:10;;;;;;;5.73;2.77;;;19.60;99.90;;;;;;5100469;27;20180;-45
2022/07/30 08:48:54;;;;;;;3.80;2.50;;;19.70;99.90;;;;;;5114970;27;20221;-47
2022/07/30 08:51:22;;;;;;;4.37;2.93;;;19.70;99.90;;;;;;5104464;27;20206;-47
2022/07/30 08:54:07;;;;;;;4.07;2.60;;;19.80;99.90;;;;;;5106392;27;20195;-48
2022/07/30 08:56:37;;;;;;;4.63;2.70;;;19.90;99.90;;;;;;5099734;27;20201;-46
2022/07/30 08:59:06;;;;;;;4.23;2.90;;;20.00;99.90;;;;;;5102874;27;20283;-47
2022/07/30 09:01:33;;;;;;;3.30;2.63;;;20.00;99.90;;;;;;5101342;27;20195;-45
2022/07/30 09:04:00;;;;;;;5.07;2.67;;;20.00;99.90;;;;;;5098768;28;20583;-46
2022/07/30 09:06:28;;;;;;;3.53;2.70;;;20.00;99.90;;;;;;5102802;28;20287;-48
2022/07/30 09:08:55;;;;;;;8.30;2.77;;;20.10;99.90;;;;;;5112102;27;20215;-46
2022/07/30 09:11:22;;;;;;;2.70;2.50;;;20.10;99.90;;;;;;5089854;27;20310;-46
2022/07/30 09:13:50;;;;;;;2.57;2.30;;;20.10;99.90;;;;;;5106591;28;20189;-48
2022/07/30 09:16:22;;;;;;;4.47;2.40;;;20.20;99.90;;;;;;5103347;27;20192;-48
2022/07/30 09:18:50;;;;;;;3.97;2.70;;;20.20;99.90;;;;;;5110346;28;20225;-48
2022/07/30 09:21:21;;;;;;;4.07;2.33;;;20.20;99.90;;;;;;5108305;28;20209;-48
2022/07/30 09:23:57;;;;;;;2.63;2.43;;;20.30;99.90;;;;;;5109317;28;20555;-47
2022/07/30 09:27:02;;;;;;;4.67;2.63;;;20.40;99.90;;;;;;5055751;28;20711;-45
2022/07/30 09:29:57;;;;;;;7.00;2.77;;;20.40;99.90;;;;;;5114546;27;20207;-45
2022/07/30 09:32:51;;;;;;;6.93;2.80;;;20.40;99.90;;;;;;5103650;28;20688;-48
2022/07/30 09:35:42;;;;;;;6.77;2.70;;;20.50;99.90;;;;;;5073842;28;20296;-51
2022/07/30 09:38:10;;;;;;;3.10;2.57;;;20.50;99.90;;;;;;5114224;28;20209;-45
2022/07/30 09:40:50;;;;;;;2.80;2.60;;;20.50;99.90;;;;;;5107570;28;20201;-49
2022/07/30 09:43:29;;;;;;;3.60;2.37;;;20.60;99.90;;;;;;5095190;28;20212;-44
2022/07/30 09:46:11;;;;;;;2.40;2.20;;;20.60;99.90;;;;;;5106562;28;20488;-44
2022/07/30 09:48:38;;;;;;;4.13;2.70;;;20.60;99.90;;;;;;5116284;28;20620;-44
2022/07/30 09:51:06;;;;;;;5.57;2.90;;;20.60;99.90;;;;;;5098943;28;20241;-49
2022/07/30 09:53:33;;;;;;;5.90;2.80;;;20.70;99.90;;;;;;5103226;28;20653;-47
2022/07/30 09:56:01;;;;;;;5.83;2.83;;;20.80;99.90;;;;;;5100638;28;20209;-46
2022/07/30 09:58:41;;;;;;;5.43;3.20;;;20.90;99.90;;;;;;5104302;27;20235;-48
2022/07/30 10:01:11;;;;;;;3.60;3.00;;;20.90;99.90;;;;;;5094918;28;20233;-50
2022/07/30 10:03:53;;;;;;;4.70;2.50;;;20.80;99.90;;;;;;5103892;28;20197;-47
2022/07/30 10:06:33;;;;;;;6.17;3.30;;;20.90;99.90;;;;;;5108075;28;20193;-48
2022/07/30 10:09:02;;;;;;;3.03;2.73;;;20.90;99.90;;;;;;5102035;28;20244;-49
2022/07/30 10:11:29;;;;;;;3.07;2.73;;;21.00;99.90;;;;;;5101984;28;20216;-48
2022/07/30 10:13:59;;;;;;;7.57;3.03;;;21.10;99.90;;;;;;5096585;28;20240;-48
2022/07/30 10:16:29;;;;;;;4.93;2.70;;;21.10;99.90;;;;;;5101199;28;20634;-47
2022/07/30 10:18:58;;;;;;;2.93;2.30;;;21.10;99.90;;;;;;5106730;28;20208;-46
2022/07/30 10:21:35;;;;;;;4.60;2.80;;;21.20;99.90;;;;;;5100370;28;20236;-47
2022/07/30 10:24:21;;;;;;;5.20;2.37;;;21.40;99.90;;;;;;5110731;27;20211;-47
2022/07/30 10:27:14;;;;;;;4.03;2.63;;;21.50;99.90;;;;;;5098083;28;20225;-46
2022/07/30 10:29:54;;;;;;;6.80;2.87;;;21.40;99.90;;;;;;5096295;27;20730;-45
2022/07/30 10:32:24;;;;;;;7.10;2.83;;;21.50;99.90;;;;;;5105977;27;20217;-47
2022/07/30 10:34:51;;;;;;;3.93;2.90;;;21.60;99.90;;;;;;5107210;27;20197;-45
2022/07/30 10:37:20;;;;;;;3.37;2.93;;;21.60;99.90;;;;;;5116781;27;20719;-45
2022/07/30 10:39:54;;;;;;;3.40;3.00;;;21.60;99.90;;;;;;5100802;28;20443;-45
2022/07/30 10:42:35;;;;;;;6.27;3.13;;;21.60;99.90;;;;;;5115330;27;20204;-46
2022/07/30 10:45:17;;;;;;;3.67;3.03;;;21.60;99.90;;;;;;5092165;27;21032;-45
2022/07/30 10:47:47;;;;;;;4.87;3.30;;;21.50;99.90;;;;;;5106728;27;20217;-48
2022/07/30 10:50:16;;;;;;;3.77;3.10;;;21.60;99.90;;;;;;5113167;27;20185;-50
2022/07/30 10:52:45;;;;;;;3.38;3.05;;;21.60;99.90;;;;;;5111989;27;20893;-46
2022/07/30 10:55:14;;;;;;;8.00;3.58;;;21.50;99.90;;;;;;5113701;27;20197;-45
2022/07/30 10:58:03;;;;;;;3.58;3.20;;;21.40;99.90;;;;;;5106640;27;20223;-51
2022/07/30 11:00:31;;;;;;;5.53;3.45;;;21.40;99.90;;;;;;5101357;27;20200;-48
2022/07/30 11:03:22;;;;;;;6.07;3.20;;;21.20;99.90;;;;;;5110056;27;20201;-45
2022/07/30 11:05:51;;;;;;;4.97;3.17;;;21.20;99.90;;;;;;5105464;27;20197;-48
2022/07/30 11:08:35;;;;;;;4.23;3.33;;;21.20;99.90;;;;;;5108243;27;20244;-47
2022/07/30 11:11:02;;;;;;;4.67;2.97;;;21.40;99.90;;;;;;5118962;27;20457;-45
2022/07/30 11:13:50;;;;;;;3.80;3.50;;;21.40;99.90;;;;;;5109813;27;20207;-45
2022/07/30 11:16:18;;;;;;;3.65;3.28;;;21.60;99.90;;;;;;5112227;27;20289;-44
2022/07/30 11:19:05;;;;;;;4.78;3.30;;;21.60;99.90;;;;;;5102989;27;20266;-44
2022/07/30 11:21:33;;;;;;;7.90;3.80;;;21.50;99.90;;;;;;5111967;27;20819;-49
2022/07/30 11:24:00;;;;;;;3.58;3.25;;;21.40;99.90;;;;;;5104252;27;20878;-45
2022/07/30 11:26:52;;;;;;;4.07;2.72;;;21.50;99.90;;;;;;5114045;27;20193;-47
2022/07/30 11:29:33;;;;;;;3.85;3.10;;;21.50;99.90;;;;;;5110997;27;20254;-46
2022/07/30 11:32:26;;;;;;;3.38;2.83;;;21.50;99.90;;;;;;5091632;27;20422;-45
2022/07/30 11:35:12;;;;;;;6.40;2.97;;;21.50;99.90;;;;;;5103568;27;20211;-45
2022/07/30 11:38:05;;;;;;;5.32;3.05;;;21.50;99.90;;;;;;5107920;27;20677;-47
2022/07/30 11:40:34;;;;;;;9.05;3.50;;;21.50;99.90;;;;;;5094610;27;20209;-50
2022/07/30 11:43:18;;;;;;;5.40;3.00;;;21.50;99.90;;;;;;5113053;27;20227;-48
2022/07/30 11:45:45;;;;;;;4.15;3.05;;;21.60;99.90;;;;;;5103442;27;20207;-44
2022/07/30 11:48:13;;;;;;;7.80;3.22;;;21.70;99.90;;;;;;5103182;27;20224;-44
2022/07/30 11:50:42;;;;;;;4.57;3.22;;;21.80;99.90;;;;;;5108026;27;20236;-45
2022/07/30 11:53:13;;;;;;;5.68;2.95;;;21.90;99.90;;;;;;5110766;27;20669;-49
2022/07/30 11:55:44;;;;;;;4.13;3.28;;;22.00;99.90;;;;;;5114808;27;20657;-48
2022/07/30 11:58:26;;;;;;;6.65;2.88;;;22.10;99.90;;;;;;5117932;27;20220;-46
2022/07/30 12:00:54;;;;;;;5.05;2.65;;;22.10;99.90;;;;;;5110081;27;21345;-46
2022/07/30 12:03:25;;;;;;;4.25;3.13;;;22.30;99.90;;;;;;5105294;27;20236;-46
2022/07/30 12:05:53;;;;;;;6.78;3.10;;;22.40;99.90;;;;;;5108654;27;20225;-48
2022/07/30 12:08:21;;;;;;;4.53;2.92;;;22.50;99.90;;;;;;5114747;27;20268;-45
2022/07/30 12:10:56;;;;;;;6.75;3.53;;;22.70;99.90;;;;;;5110785;27;20510;-46
2022/07/30 12:13:23;;;;;;;5.00;3.22;;;22.80;99.90;;;;;;5110264;27;20253;-47
2022/07/30 12:15:50;;;;;;;6.25;3.10;;;22.90;99.90;;;;;;5110081;27;20313;-45
2022/07/30 12:18:25;;;;;;;7.05;2.70;;;23.00;99.90;;;;;;5100762;27;20221;-45
2022/07/30 12:20:59;;;;;;;5.90;3.20;;;23.10;99.90;;;;;;5098430;27;20243;-45
2022/07/30 12:23:26;;;;;;;5.50;3.10;;;23.20;99.90;;;;;;5103883;28;20284;-47
2022/07/30 12:25:53;;;;;;;4.25;2.47;;;23.20;99.90;;;;;;5105161;27;20186;-46
2022/07/30 12:28:23;;;;;;;3.47;3.17;;;23.20;99.90;;;;;;5113375;27;20966;-48
2022/07/30 12:30:51;;;;;;;5.00;3.13;;;23.20;99.90;;;;;;5111529;27;20271;-46
2022/07/30 12:33:18;;;;;;;5.72;3.10;;;23.20;99.90;;;;;;5112645;27;20201;-46
2022/07/30 12:35:48;;;;;;;4.03;3.00;;;23.30;99.90;;;;;;5096916;27;20931;-50
2022/07/30 12:38:17;;;;;;;4.57;2.70;;;23.40;99.90;;;;;;5114195;27;20220;-44
2022/07/30 12:40:52;;;;;;;7.38;3.25;;;23.50;99.90;;;;;;5100559;27;20335;-44
2022/07/30 12:43:45;;;;;;;3.42;2.72;;;23.70;99.90;;;;;;5116337;27;20699;-44
2022/07/30 12:46:13;;;;;;;2.53;2.17;;;23.80;99.90;;;;;;5104321;28;20205;-45
2022/07/30 12:48:52;;;;;;;6.50;3.10;;;23.80;99.90;;;;;;5100948;27;20705;-44
2022/07/30 12:51:21;;;;;;;2.95;2.50;;;23.80;99.90;;;;;;5087215;27;20235;-46
2022/07/30 12:53:49;;;;;;;5.50;2.63;;;23.90;99.90;;;;;;5102363;27;20254;-44
2022/07/30 12:56:18;;;;;;;4.38;3.00;;;23.80;99.90;;;;;;5103338;28;20209;-44
2022/07/30 12:58:46;;;;;;;6.13;3.00;;;23.90;99.90;;;;;;5100485;28;20232;-44
2022/07/30 13:01:13;;;;;;;6.18;3.47;;;24.00;99.90;;;;;;5104418;28;20204;-44
2022/07/30 13:03:40;;;;;;;3.08;2.78;;;24.00;99.90;;;;;;5100327;28;20201;-46
2022/07/30 13:06:15;;;;;;;4.32;2.50;;;24.00;99.90;;;;;;5105841;27;20209;-44
2022/07/30 13:08:46;;;;;;;3.40;2.65;;;23.90;99.90;;;;;;5102952;27;20689;-45
2022/07/30 13:11:15;;;;;;;6.47;3.10;;;24.10;99.90;;;;;;5115802;27;20240;-44
2022/07/30 13:13:41;;;;;;;2.78;2.58;;;24.20;99.90;;;;;;5099827;28;20205;-46
2022/07/30 13:16:08;;;;;;;4.63;2.63;;;24.30;99.90;;;;;;5107232;28;20207;-44
2022/07/30 13:18:36;;;;;;;3.35;2.47;;;24.20;99.90;;;;;;5113035;28;20219;-44
2022/07/30 13:21:05;;;;;;;3.75;2.83;;;24.40;99.90;;;;;;5099436;28;20223;-44